Time;durP1;ratioP1;P1;durP2;ratioP2;P2;SDS_P1;SDS_P2;PMS_P1;PMS_P2;Temp;Humidity;BMP_temperature;BMP_pressure;BME280_temperature;BME280_humidity;BME280_pressure;Samples;Min_cycle;Max_cycle;Signal;HPM_P1;HPM_P2
2022/07/29 00:00:01;;;;;;;5.65;1.73;;;19.50;99.90;;;;;;5034115;28;20405;-61
2022/07/29 00:02:27;;;;;;;4.55;1.92;;;19.50;99.90;;;;;;5031610;28;20044;-61
2022/07/29 00:04:53;;;;;;;4.47;1.65;;;19.50;99.90;;;;;;5030341;28;20083;-60
2022/07/29 00:07:19;;;;;;;5.57;2.03;;;19.50;99.90;;;;;;5027544;28;20037;-60
2022/07/29 00:09:44;;;;;;;7.90;1.83;;;19.50;99.90;;;;;;5032942;28;20124;-61
2022/07/29 00:12:10;;;;;;;7.00;1.65;;;19.50;99.90;;;;;;5032120;28;20036;-61
2022/07/29 00:14:37;;;;;;;5.60;1.60;;;19.50;99.90;;;;;;5038158;28;20667;-61
2022/07/29 00:17:02;;;;;;;4.95;1.63;;;19.40;99.90;;;;;;5037784;28;20100;-61
2022/07/29 00:19:28;;;;;;;8.73;1.70;;;19.40;99.90;;;;;;5035339;28;20116;-60
2022/07/29 00:21:53;;;;;;;6.57;1.73;;;19.40;99.90;;;;;;5030706;28;20036;-60
2022/07/29 00:24:19;;;;;;;5.30;1.73;;;19.40;99.90;;;;;;5027677;28;20029;-61
2022/07/29 00:26:45;;;;;;;5.75;1.80;;;19.40;99.90;;;;;;5032007;28;20022;-60
2022/07/29 00:29:10;;;;;;;5.90;1.70;;;19.40;99.90;;;;;;5028719;28;20079;-60
2022/07/29 00:31:36;;;;;;;4.57;1.50;;;19.50;99.90;;;;;;5039247;28;20024;-61
2022/07/29 00:34:03;;;;;;;7.22;1.77;;;19.50;99.90;;;;;;5030203;28;20033;-61
2022/07/29 00:36:28;;;;;;;5.93;1.45;;;19.50;99.90;;;;;;5030505;28;20497;-60
2022/07/29 00:38:54;;;;;;;4.80;1.58;;;19.50;99.90;;;;;;5027648;28;20120;-61
2022/07/29 00:41:20;;;;;;;6.72;1.60;;;19.50;99.90;;;;;;5032019;28;20037;-60
2022/07/29 00:43:46;;;;;;;4.40;1.48;;;19.40;99.90;;;;;;5032874;28;20360;-60
2022/07/29 00:46:12;;;;;;;3.10;1.50;;;19.40;99.90;;;;;;5033465;28;20669;-61
2022/07/29 00:48:38;;;;;;;6.07;1.80;;;19.40;99.90;;;;;;5028898;28;20022;-61
2022/07/29 00:51:05;;;;;;;6.30;1.75;;;19.30;99.90;;;;;;5034963;28;20048;-60
2022/07/29 00:53:31;;;;;;;10.77;1.63;;;19.20;99.90;;;;;;5029339;28;20131;-61
2022/07/29 00:55:57;;;;;;;4.38;1.67;;;19.20;99.90;;;;;;5036427;28;20771;-61
2022/07/29 00:58:24;;;;;;;6.97;1.40;;;19.20;99.90;;;;;;5032158;28;20038;-61
2022/07/29 01:00:50;;;;;;;7.80;1.83;;;19.30;99.90;;;;;;5033299;28;20528;-60
2022/07/29 01:03:16;;;;;;;5.80;1.88;;;19.30;99.90;;;;;;5028468;28;20098;-61
2022/07/29 01:05:44;;;;;;;4.15;1.48;;;19.30;99.90;;;;;;5036697;28;20032;-60
2022/07/29 01:08:11;;;;;;;6.57;1.73;;;19.30;99.90;;;;;;5031396;28;20047;-61
2022/07/29 01:10:38;;;;;;;6.05;1.98;;;19.30;99.90;;;;;;5028332;28;20100;-60
2022/07/29 01:13:05;;;;;;;5.93;1.48;;;19.30;99.90;;;;;;5038618;28;20241;-60
2022/07/29 01:15:32;;;;;;;4.50;1.65;;;19.30;99.90;;;;;;5033631;28;20040;-60
2022/07/29 01:18:06;;;;;;;6.30;2.05;;;19.40;99.90;;;;;;5038800;28;20023;-61
2022/07/29 01:21:09;;;;;;;5.45;1.50;;;19.10;99.90;;;;;;5027766;28;20029;-60
2022/07/29 01:24:15;;;;;;;3.63;1.50;;;19.10;99.90;;;;;;5038078;28;20124;-62
2022/07/29 01:26:46;;;;;;;5.38;1.60;;;19.10;99.90;;;;;;5029099;28;20041;-60
2022/07/29 01:29:34;;;;;;;8.43;1.30;;;19.10;99.90;;;;;;5029342;28;20025;-60
2022/07/29 01:32:10;;;;;;;6.57;1.60;;;19.20;99.90;;;;;;5031965;28;20116;-62
2022/07/29 01:34:48;;;;;;;5.43;1.70;;;19.40;99.90;;;;;;5029853;28;20653;-61
2022/07/29 01:37:42;;;;;;;6.70;1.80;;;19.20;99.90;;;;;;5031660;28;20104;-60
2022/07/29 01:40:28;;;;;;;6.07;1.50;;;19.20;99.90;;;;;;5031348;28;20048;-62
2022/07/29 01:42:57;;;;;;;3.83;1.25;;;19.20;99.90;;;;;;5037403;28;20045;-60
2022/07/29 01:45:43;;;;;;;13.65;1.77;;;19.10;99.90;;;;;;5037292;28;20060;-60
2022/07/29 01:48:36;;;;;;;6.82;1.70;;;19.00;99.90;;;;;;5042640;28;20069;-61
2022/07/29 01:51:12;;;;;;;3.90;1.77;;;18.90;99.90;;;;;;5031216;28;20714;-60
2022/07/29 01:53:59;;;;;;;2.33;1.38;;;19.00;99.90;;;;;;5040305;28;20091;-60
2022/07/29 01:56:29;;;;;;;3.55;1.60;;;19.20;99.90;;;;;;5037703;28;20026;-61
2022/07/29 01:58:56;;;;;;;7.70;1.73;;;19.20;99.90;;;;;;5024837;28;20569;-61
2022/07/29 02:01:24;;;;;;;3.53;1.38;;;19.10;99.90;;;;;;5041456;28;20605;-60
2022/07/29 02:03:52;;;;;;;3.22;1.45;;;19.10;99.90;;;;;;5043452;28;20021;-61
2022/07/29 02:06:22;;;;;;;7.68;1.67;;;19.00;99.90;;;;;;5035754;28;20029;-61
2022/07/29 02:08:49;;;;;;;2.60;1.42;;;19.00;99.90;;;;;;5042880;28;20017;-60
2022/07/29 02:11:15;;;;;;;5.45;1.40;;;19.10;99.90;;;;;;5025684;28;20025;-60
2022/07/29 02:13:42;;;;;;;3.85;1.10;;;19.00;99.90;;;;;;5030525;28;20048;-61
2022/07/29 02:16:09;;;;;;;5.28;1.42;;;19.00;99.90;;;;;;5027019;28;20043;-61
2022/07/29 02:18:38;;;;;;;3.10;1.05;;;18.80;99.90;;;;;;5041530;28;20025;-60
2022/07/29 02:21:05;;;;;;;4.32;1.60;;;18.80;99.90;;;;;;5027236;28;20517;-60
2022/07/29 02:23:32;;;;;;;3.42;1.33;;;18.60;99.90;;;;;;5042501;28;20028;-61
2022/07/29 02:25:59;;;;;;;5.85;1.40;;;18.50;99.90;;;;;;5025455;28;20029;-60
2022/07/29 02:28:28;;;;;;;5.50;1.40;;;18.60;99.90;;;;;;5027518;28;20026;-60
2022/07/29 02:30:57;;;;;;;6.68;1.30;;;18.50;99.90;;;;;;5025734;28;20029;-60
2022/07/29 02:33:23;;;;;;;3.08;1.23;;;18.50;99.90;;;;;;5032320;28;20037;-60
2022/07/29 02:35:50;;;;;;;3.70;1.25;;;18.40;99.90;;;;;;5029285;28;20048;-60
2022/07/29 02:41:42;;;;;;;5.30;1.30;;;18.20;99.90;;;;;;5031209;28;20132;-60
2022/07/29 02:44:16;;;;;;;4.97;1.40;;;18.00;99.90;;;;;;4982016;28;20034;-60
2022/07/29 02:47:15;;;;;;;2.83;1.20;;;18.10;99.90;;;;;;5038784;28;20037;-61
2022/07/29 02:49:52;;;;;;;9.02;1.30;;;18.00;99.90;;;;;;5014978;28;20094;-60
2022/07/29 02:52:31;;;;;;;5.05;1.27;;;17.90;99.90;;;;;;5029906;28;20104;-60
2022/07/29 02:55:02;;;;;;;6.38;1.55;;;17.80;99.90;;;;;;5034335;28;20063;-61
2022/07/29 02:57:47;;;;;;;8.48;1.50;;;17.90;99.90;;;;;;5032189;28;20557;-61
2022/07/29 03:00:14;;;;;;;6.40;1.60;;;17.90;99.90;;;;;;5033386;28;20515;-60
2022/07/29 03:02:44;;;;;;;5.10;1.33;;;17.70;99.90;;;;;;5034842;28;20040;-60
2022/07/29 03:05:16;;;;;;;5.43;1.40;;;17.60;99.90;;;;;;5033088;28;20021;-61
2022/07/29 03:07:46;;;;;;;4.47;1.08;;;17.60;99.90;;;;;;5044056;28;20431;-61
2022/07/29 03:10:12;;;;;;;6.05;1.33;;;17.60;99.90;;;;;;5033063;28;20110;-60
2022/07/29 03:12:38;;;;;;;4.53;1.40;;;17.50;99.90;;;;;;5028386;28;20475;-61
2022/07/29 03:15:04;;;;;;;4.15;1.10;;;17.40;99.90;;;;;;5034687;28;20040;-61
2022/07/29 03:17:31;;;;;;;4.72;1.40;;;17.40;99.90;;;;;;5042082;28;20064;-60
2022/07/29 03:19:57;;;;;;;7.07;1.25;;;17.50;99.90;;;;;;5035355;28;21021;-60
2022/07/29 03:22:24;;;;;;;3.17;1.25;;;17.60;99.90;;;;;;5033482;28;20030;-61
2022/07/29 03:24:49;;;;;;;4.05;1.23;;;17.70;99.90;;;;;;5030675;28;20111;-60
2022/07/29 03:27:15;;;;;;;9.02;1.48;;;17.60;99.90;;;;;;5027835;28;20438;-61
2022/07/29 03:29:40;;;;;;;5.78;1.30;;;17.60;99.90;;;;;;5036242;28;20479;-61
2022/07/29 03:32:06;;;;;;;6.60;1.13;;;17.90;99.90;;;;;;5035592;28;20025;-61
2022/07/29 03:34:32;;;;;;;6.15;1.30;;;17.80;99.90;;;;;;5029389;28;20107;-61
2022/07/29 03:36:57;;;;;;;3.25;1.45;;;17.80;99.90;;;;;;5040411;28;20098;-60
2022/07/29 03:39:27;;;;;;;4.57;1.40;;;17.90;99.90;;;;;;5033114;28;20116;-60
2022/07/29 03:41:58;;;;;;;3.47;1.20;;;18.00;99.90;;;;;;5036906;28;20530;-61
2022/07/29 03:44:27;;;;;;;5.82;1.50;;;18.10;99.90;;;;;;5028147;28;20033;-61
2022/07/29 03:46:55;;;;;;;6.78;1.40;;;18.10;99.90;;;;;;5031936;28;20088;-61
2022/07/29 03:49:22;;;;;;;4.55;1.55;;;18.40;99.90;;;;;;5031936;28;20029;-60
2022/07/29 03:51:48;;;;;;;4.72;1.20;;;18.60;99.90;;;;;;5045622;28;20027;-60
2022/07/29 03:54:13;;;;;;;4.75;1.30;;;18.60;99.90;;;;;;5027088;28;20432;-60
2022/07/29 03:56:47;;;;;;;4.00;1.50;;;17.90;99.90;;;;;;5030848;28;20786;-60
2022/07/29 03:59:14;;;;;;;;;;;17.70;99.90;;;;;;5027942;28;20025;-60
2022/07/29 04:01:41;;;;;;;3.75;1.33;;;17.90;99.90;;;;;;5039381;28;20714;-60
2022/07/29 04:04:06;;;;;;;4.03;1.85;;;17.90;99.90;;;;;;5031179;28;20116;-60
2022/07/29 04:06:43;;;;;;;5.25;1.50;;;17.80;99.90;;;;;;5034819;28;20112;-60
2022/07/29 04:09:09;;;;;;;5.82;1.60;;;17.60;99.90;;;;;;5026470;28;20481;-60
2022/07/29 04:11:36;;;;;;;4.50;1.70;;;17.30;99.90;;;;;;5030928;28;20097;-60
2022/07/29 04:14:02;;;;;;;4.45;1.58;;;17.30;99.90;;;;;;5033916;28;20039;-60
2022/07/29 04:16:28;;;;;;;3.42;1.95;;;17.20;99.90;;;;;;5029852;28;20112;-60
2022/07/29 04:18:53;;;;;;;5.07;1.83;;;17.30;99.90;;;;;;5046194;28;20133;-61
2022/07/29 04:21:19;;;;;;;4.85;2.28;;;17.00;99.90;;;;;;5030069;28;20317;-60
2022/07/29 04:23:48;;;;;;;8.15;2.00;;;16.60;99.90;;;;;;5030606;28;20222;-60
2022/07/29 04:26:14;;;;;;;9.30;2.50;;;16.50;99.90;;;;;;5027323;28;20045;-60
2022/07/29 04:28:40;;;;;;;5.20;2.10;;;16.50;99.90;;;;;;5030706;28;20508;-60
2022/07/29 04:31:05;;;;;;;5.72;2.08;;;16.50;99.90;;;;;;5029851;28;20222;-60
2022/07/29 04:33:31;;;;;;;6.80;2.15;;;16.40;99.90;;;;;;5033797;28;20535;-60
2022/07/29 04:35:56;;;;;;;5.13;2.30;;;16.20;99.90;;;;;;5026989;28;20029;-60
2022/07/29 04:38:22;;;;;;;5.10;2.22;;;16.10;99.90;;;;;;5038697;28;20040;-60
2022/07/29 04:40:48;;;;;;;6.20;2.33;;;16.10;99.90;;;;;;5026322;28;20029;-60
2022/07/29 04:43:15;;;;;;;7.18;2.38;;;16.20;99.90;;;;;;5030249;28;20058;-60
2022/07/29 04:45:41;;;;;;;6.72;2.20;;;16.20;99.90;;;;;;5030691;28;20028;-60
2022/07/29 04:48:06;;;;;;;5.68;2.40;;;16.10;99.90;;;;;;5032692;28;20042;-60
2022/07/29 04:50:32;;;;;;;7.72;2.50;;;16.40;99.90;;;;;;5032321;28;20345;-60
2022/07/29 04:52:57;;;;;;;5.43;2.38;;;16.60;99.90;;;;;;5028982;28;20724;-60
2022/07/29 04:55:23;;;;;;;7.35;2.40;;;16.90;99.90;;;;;;5026915;28;20108;-60
2022/07/29 04:57:49;;;;;;;4.70;2.45;;;16.80;99.90;;;;;;5039099;28;20114;-60
2022/07/29 05:00:14;;;;;;;8.40;2.38;;;16.80;99.90;;;;;;5032850;28;20098;-60
2022/07/29 05:02:40;;;;;;;5.25;2.40;;;16.90;99.90;;;;;;5034733;28;20211;-60
2022/07/29 05:05:06;;;;;;;5.72;2.50;;;16.90;99.90;;;;;;5031845;28;20026;-61
2022/07/29 05:07:32;;;;;;;5.07;2.30;;;16.50;99.90;;;;;;5029057;28;20789;-60
2022/07/29 05:09:58;;;;;;;4.45;2.80;;;16.30;99.90;;;;;;5029941;28;20031;-60
2022/07/29 05:12:24;;;;;;;8.02;2.75;;;16.20;99.90;;;;;;5026790;28;20478;-60
2022/07/29 05:14:49;;;;;;;7.55;2.65;;;16.70;99.90;;;;;;5030795;28;20098;-60
2022/07/29 05:17:15;;;;;;;8.75;2.53;;;16.70;99.90;;;;;;5040815;28;20116;-60
2022/07/29 05:19:40;;;;;;;7.75;2.90;;;16.90;99.90;;;;;;5045037;28;20013;-60
2022/07/29 05:22:06;;;;;;;8.00;2.50;;;16.90;99.90;;;;;;5025119;28;20385;-61
2022/07/29 05:24:32;;;;;;;5.50;2.70;;;17.20;99.90;;;;;;5029685;28;20542;-60
2022/07/29 05:26:57;;;;;;;5.47;2.60;;;17.00;99.90;;;;;;5026321;28;20759;-60
2022/07/29 05:29:23;;;;;;;6.40;2.90;;;16.20;99.90;;;;;;5031273;28;20500;-60
2022/07/29 05:31:48;;;;;;;6.38;2.97;;;16.30;99.90;;;;;;5034585;28;20597;-60
2022/07/29 05:34:14;;;;;;;6.57;3.00;;;16.10;99.90;;;;;;5030070;28;20037;-60
2022/07/29 05:36:40;;;;;;;8.40;2.70;;;16.40;99.90;;;;;;5025147;28;20036;-60
2022/07/29 05:39:05;;;;;;;9.73;3.40;;;16.60;99.90;;;;;;5029049;28;20030;-60
2022/07/29 05:41:33;;;;;;;7.25;3.17;;;16.50;99.90;;;;;;5027620;28;20112;-60
2022/07/29 05:43:59;;;;;;;5.45;2.88;;;16.60;99.90;;;;;;5031588;28;20080;-61
2022/07/29 05:46:25;;;;;;;5.72;3.20;;;16.80;99.90;;;;;;5032115;28;20587;-60
2022/07/29 05:48:50;;;;;;;5.28;2.83;;;16.70;99.90;;;;;;5030056;28;20119;-60
2022/07/29 05:51:16;;;;;;;6.22;3.28;;;16.10;99.90;;;;;;5024827;28;20031;-60
2022/07/29 05:53:41;;;;;;;7.78;3.33;;;16.10;99.90;;;;;;5037615;28;20033;-60
2022/07/29 05:56:07;;;;;;;9.10;3.53;;;15.20;99.90;;;;;;5030068;28;20048;-60
2022/07/29 05:58:33;;;;;;;7.50;3.25;;;16.40;99.90;;;;;;5027271;28;20121;-60
2022/07/29 06:00:59;;;;;;;8.38;3.17;;;16.30;99.90;;;;;;5036820;28;20029;-60
2022/07/29 06:03:25;;;;;;;8.02;3.58;;;16.50;99.90;;;;;;5038408;28;20029;-60
2022/07/29 06:05:51;;;;;;;8.27;3.53;;;16.20;99.90;;;;;;5035976;28;20040;-60
2022/07/29 06:08:17;;;;;;;7.57;3.33;;;16.30;99.90;;;;;;5025398;28;20025;-60
2022/07/29 06:10:43;;;;;;;9.63;3.45;;;16.30;99.90;;;;;;5031539;28;20029;-60
2022/07/29 06:13:08;;;;;;;8.20;3.42;;;16.30;99.90;;;;;;5026165;28;20033;-60
2022/07/29 06:15:34;;;;;;;8.73;3.53;;;16.40;99.90;;;;;;5034912;28;20029;-60
2022/07/29 06:18:00;;;;;;;8.77;3.90;;;16.30;99.90;;;;;;5042586;28;20091;-60
2022/07/29 06:20:26;;;;;;;9.40;3.40;;;16.50;99.90;;;;;;5030247;28;20562;-61
2022/07/29 06:22:52;;;;;;;6.50;3.70;;;16.50;99.90;;;;;;5025001;28;20033;-60
2022/07/29 06:25:18;;;;;;;11.25;3.75;;;16.30;99.90;;;;;;5036688;28;20389;-60
2022/07/29 06:27:43;;;;;;;8.88;3.85;;;16.60;99.90;;;;;;5029246;28;20610;-60
2022/07/29 06:30:09;;;;;;;10.63;4.18;;;16.70;99.90;;;;;;5029110;28;20025;-60
2022/07/29 06:32:36;;;;;;;7.13;3.90;;;17.00;99.90;;;;;;5032272;28;20515;-60
2022/07/29 06:35:01;;;;;;;7.25;3.70;;;16.40;99.90;;;;;;5032995;28;20661;-60
2022/07/29 06:37:27;;;;;;;10.50;4.20;;;17.40;99.90;;;;;;5027365;28;20033;-60
2022/07/29 06:40:59;;;;;;;7.10;3.83;;;17.20;99.90;;;;;;5029173;28;20036;-60
2022/07/29 06:42:42;;;;;;;7.95;3.80;;;17.10;99.90;;;;;;5029305;28;20112;-60
2022/07/29 06:45:09;;;;;;;8.27;3.60;;;17.00;99.90;;;;;;5027336;28;20221;-60
2022/07/29 06:47:34;;;;;;;5.15;3.65;;;17.40;99.90;;;;;;5043712;28;20480;-61
2022/07/29 06:49:59;;;;;;;12.73;4.03;;;17.40;99.90;;;;;;5025504;28;20314;-60
2022/07/29 06:52:25;;;;;;;8.18;3.85;;;17.70;99.90;;;;;;5028755;28;20029;-60
2022/07/29 06:54:51;;;;;;;6.63;3.60;;;17.80;99.90;;;;;;5025522;28;20034;-60
2022/07/29 06:57:16;;;;;;;8.30;3.47;;;17.90;99.90;;;;;;5029205;28;20103;-61
2022/07/29 06:59:42;;;;;;;7.43;3.60;;;17.70;99.90;;;;;;5029759;28;20426;-60
2022/07/29 07:02:07;;;;;;;7.00;3.58;;;17.70;99.90;;;;;;5040286;28;20033;-60
2022/07/29 07:04:33;;;;;;;7.63;4.10;;;17.40;99.90;;;;;;5028905;28;20026;-60
2022/07/29 07:06:59;;;;;;;6.78;4.13;;;17.40;99.90;;;;;;5028212;28;20029;-61
2022/07/29 07:09:25;;;;;;;8.00;3.85;;;17.50;99.90;;;;;;5026972;28;20230;-60
2022/07/29 07:11:50;;;;;;;11.77;4.15;;;17.60;99.90;;;;;;5030303;28;20418;-60
2022/07/29 07:14:16;;;;;;;23.45;8.98;;;17.60;99.90;;;;;;5032281;28;20021;-60
2022/07/29 07:16:41;;;;;;;8.45;4.65;;;17.60;99.90;;;;;;5029065;28;20236;-60
2022/07/29 07:19:07;;;;;;;9.73;4.50;;;17.50;99.90;;;;;;5034770;28;20428;-61
2022/07/29 07:21:33;;;;;;;7.32;3.90;;;17.40;99.90;;;;;;5029721;28;20030;-61
2022/07/29 07:23:59;;;;;;;7.32;4.50;;;17.40;99.90;;;;;;5028966;28;20017;-61
2022/07/29 07:26:25;;;;;;;8.00;4.07;;;17.40;99.90;;;;;;5025779;28;20114;-61
2022/07/29 07:28:51;;;;;;;6.50;4.20;;;17.40;99.90;;;;;;5029998;28;20108;-60
2022/07/29 07:31:16;;;;;;;9.60;4.15;;;17.20;99.90;;;;;;5031897;28;20420;-61
2022/07/29 07:33:42;;;;;;;7.70;4.03;;;17.30;99.90;;;;;;5027100;28;20155;-61
2022/07/29 07:36:08;;;;;;;10.43;4.90;;;17.10;99.90;;;;;;5033662;28;20630;-61
2022/07/29 07:38:34;;;;;;;11.32;4.43;;;17.00;99.90;;;;;;5038897;28;20029;-61
2022/07/29 07:41:00;;;;;;;10.43;4.53;;;16.80;99.90;;;;;;5032168;28;20040;-60
2022/07/29 07:43:26;;;;;;;9.73;3.92;;;16.70;99.90;;;;;;5032442;28;20073;-60
2022/07/29 07:45:51;;;;;;;10.38;4.97;;;16.60;99.90;;;;;;5031227;28;20072;-60
2022/07/29 07:48:17;;;;;;;9.13;4.85;;;16.50;99.90;;;;;;5033674;28;20038;-60
2022/07/29 07:50:43;;;;;;;9.95;5.28;;;15.60;99.90;;;;;;5028215;28;20029;-60
2022/07/29 07:53:09;;;;;;;9.43;5.93;;;16.40;99.90;;;;;;5031932;28;20034;-60
2022/07/29 07:55:40;;;;;;;10.45;5.75;;;16.80;99.90;;;;;;5031608;28;20032;-60
2022/07/29 07:58:06;;;;;;;8.43;6.07;;;16.80;99.90;;;;;;5032518;28;20091;-60
2022/07/29 08:00:32;;;;;;;11.88;6.18;;;17.00;99.90;;;;;;5027739;28;20424;-61
2022/07/29 08:02:58;;;;;;;11.98;5.88;;;16.80;99.90;;;;;;5033129;28;20386;-60
2022/07/29 08:05:23;;;;;;;13.93;6.55;;;16.70;99.90;;;;;;5029745;28;20032;-60
2022/07/29 08:07:49;;;;;;;13.25;6.50;;;16.50;99.90;;;;;;5035758;28;20516;-60
2022/07/29 08:13:05;;;;;;;13.45;6.55;;;17.00;99.90;;;;;;5035153;28;20040;-60
2022/07/29 08:15:30;;;;;;;12.15;6.60;;;17.10;99.90;;;;;;5038204;28;20029;-60
2022/07/29 08:17:56;;;;;;;11.88;6.60;;;17.40;99.90;;;;;;5036191;28;20027;-60
2022/07/29 08:20:21;;;;;;;16.38;7.18;;;17.30;99.90;;;;;;5036975;28;20033;-60
2022/07/29 08:22:47;;;;;;;15.18;6.85;;;17.10;99.90;;;;;;5028134;28;20087;-61
2022/07/29 08:25:13;;;;;;;10.77;6.45;;;17.00;99.90;;;;;;5032816;28;20021;-60
2022/07/29 08:27:38;;;;;;;15.45;6.38;;;16.80;99.90;;;;;;5029938;28;20532;-60
2022/07/29 08:30:04;;;;;;;11.82;6.55;;;17.00;99.90;;;;;;5039358;28;20038;-60
2022/07/29 08:32:31;;;;;;;13.60;7.35;;;17.20;99.90;;;;;;5027735;28;20120;-60
2022/07/29 08:34:56;;;;;;;11.45;6.50;;;17.00;99.90;;;;;;5035933;28;20048;-60
2022/07/29 08:37:22;;;;;;;11.80;6.63;;;16.90;99.90;;;;;;5028196;28;20048;-60
2022/07/29 08:39:47;;;;;;;9.60;6.47;;;17.20;99.90;;;;;;5033605;28;20488;-60
2022/07/29 08:42:13;;;;;;;14.48;7.07;;;17.10;99.90;;;;;;5033057;28;20082;-60
2022/07/29 08:44:39;;;;;;;18.13;10.43;;;16.90;99.90;;;;;;5029448;28;20676;-60
2022/07/29 08:47:05;;;;;;;16.02;9.68;;;16.90;99.90;;;;;;5033554;28;20025;-60
2022/07/29 08:49:33;;;;;;;10.85;6.70;;;17.10;99.90;;;;;;5031179;28;20108;-59
2022/07/29 08:51:59;;;;;;;10.88;7.10;;;17.30;99.90;;;;;;5031655;28;20029;-60
2022/07/29 08:54:25;;;;;;;14.57;7.60;;;17.10;99.90;;;;;;5028619;28;20513;-60
2022/07/29 08:56:51;;;;;;;12.45;7.70;;;17.40;99.90;;;;;;5031846;28;20027;-61
2022/07/29 08:59:20;;;;;;;11.65;7.80;;;17.60;99.90;;;;;;5029175;28;20559;-59
2022/07/29 09:01:47;;;;;;;15.88;7.60;;;17.50;99.90;;;;;;5037065;28;20029;-60
2022/07/29 09:04:14;;;;;;;12.45;7.47;;;17.40;99.90;;;;;;5026690;28;20477;-60
2022/07/29 09:06:43;;;;;;;11.35;7.28;;;17.40;99.90;;;;;;5031019;28;20017;-60
2022/07/29 09:09:09;;;;;;;10.05;7.28;;;17.70;99.90;;;;;;5028112;28;20655;-60
2022/07/29 09:11:35;;;;;;;13.55;7.03;;;17.80;99.90;;;;;;5036959;28;20030;-60
2022/07/29 09:14:01;;;;;;;14.73;6.75;;;17.90;99.90;;;;;;5030353;28;20029;-60
2022/07/29 09:16:44;;;;;;;10.57;7.13;;;17.90;99.90;;;;;;5031580;28;20477;-60
2022/07/29 09:19:26;;;;;;;17.63;7.93;;;18.00;99.90;;;;;;5039723;28;20512;-60
2022/07/29 09:22:00;;;;;;;15.77;8.07;;;18.00;99.90;;;;;;5036434;28;20041;-61
2022/07/29 09:24:47;;;;;;;13.75;7.63;;;18.00;99.90;;;;;;5031429;28;20057;-60
2022/07/29 09:27:25;;;;;;;14.20;7.82;;;18.00;99.90;;;;;;5028933;28;20140;-61
2022/07/29 09:30:06;;;;;;;15.18;8.02;;;18.00;99.90;;;;;;5038155;28;20137;-61
2022/07/29 09:32:33;;;;;;;11.75;7.55;;;18.30;99.90;;;;;;5029717;28;20056;-60
2022/07/29 09:35:28;;;;;;;12.48;7.50;;;18.40;99.90;;;;;;5034799;28;20079;-61
2022/07/29 09:37:56;;;;;;;15.23;8.52;;;;;;;;;;5034244;28;20120;-60
2022/07/29 09:40:25;;;;;;;12.50;6.85;;;18.50;99.90;;;;;;5029014;28;20372;-60
2022/07/29 09:42:52;;;;;;;13.48;7.53;;;19.10;99.90;;;;;;5030266;28;20037;-60
2022/07/29 09:45:32;;;;;;;13.82;7.43;;;18.60;99.90;;;;;;5034870;28;20212;-60
2022/07/29 09:48:02;;;;;;;12.15;7.32;;;;;;;;;;5032737;28;20021;-60
2022/07/29 09:50:54;;;;;;;12.40;6.32;;;18.30;99.90;;;;;;5027145;28;20145;-61
2022/07/29 09:53:34;;;;;;;12.88;6.30;;;18.40;99.90;;;;;;5028856;28;20038;-60
2022/07/29 09:56:00;;;;;;;11.82;7.03;;;18.40;99.90;;;;;;5024036;28;20030;-60
2022/07/29 09:58:26;;;;;;;12.68;6.70;;;18.50;99.90;;;;;;5029075;28;20705;-60
2022/07/29 10:00:54;;;;;;;11.82;6.80;;;18.40;99.90;;;;;;5026186;28;20108;-60
2022/07/29 10:03:20;;;;;;;10.23;7.22;;;18.00;99.90;;;;;;5037272;28;20029;-60
2022/07/29 10:06:03;;;;;;;11.68;7.05;;;18.60;99.90;;;;;;5037517;28;20070;-60
2022/07/29 10:08:31;;;;;;;15.43;7.25;;;;;;;;;;5027528;28;20594;-61
2022/07/29 10:11:10;;;;;;;11.10;6.95;;;18.80;99.90;;;;;;5024700;28;20034;-61
2022/07/29 10:13:37;;;;;;;13.20;7.05;;;18.90;99.90;;;;;;5032446;28;20081;-60
2022/07/29 10:16:03;;;;;;;10.73;7.30;;;19.10;99.90;;;;;;5029854;28;20051;-61
2022/07/29 10:18:29;;;;;;;11.35;6.47;;;19.30;99.90;;;;;;5042958;28;20062;-60
2022/07/29 10:20:56;;;;;;;13.68;7.22;;;19.30;99.90;;;;;;5030144;28;20036;-60
2022/07/29 10:23:23;;;;;;;15.05;7.85;;;19.20;99.90;;;;;;5027105;28;20284;-61
2022/07/29 10:25:49;;;;;;;13.30;7.53;;;19.30;99.90;;;;;;5037123;28;20483;-61
2022/07/29 10:28:15;;;;;;;17.88;8.93;;;19.30;99.90;;;;;;5027714;28;20021;-61
2022/07/29 10:30:41;;;;;;;20.73;9.48;;;19.40;99.90;;;;;;5033793;28;20542;-61
2022/07/29 10:33:16;;;;;;;25.83;8.45;;;19.50;99.90;;;;;;5027788;28;20401;-60
2022/07/29 10:36:05;;;;;;;22.13;8.90;;;19.60;99.90;;;;;;5037088;28;20021;-61
2022/07/29 10:38:47;;;;;;;18.48;9.15;;;19.80;99.90;;;;;;5027348;28;20053;-60
2022/07/29 10:41:50;;;;;;;22.45;8.88;;;20.10;99.90;;;;;;5031292;28;20032;-60
2022/07/29 10:44:18;;;;;;;18.25;9.02;;;20.20;99.90;;;;;;5035378;28;20121;-61
2022/07/29 10:46:44;;;;;;;17.33;9.25;;;20.30;99.90;;;;;;5027475;28;20037;-61
2022/07/29 10:49:19;;;;;;;17.25;9.20;;;20.30;99.90;;;;;;5038960;28;20064;-61
2022/07/29 10:51:51;;;;;;;19.42;7.25;;;20.40;99.90;;;;;;5040445;28;20079;-61
2022/07/29 10:54:35;;;;;;;12.10;6.35;;;20.50;99.90;;;;;;5029396;28;20025;-60
2022/07/29 10:57:20;;;;;;;14.68;6.32;;;20.40;99.90;;;;;;5028954;28;20037;-61
2022/07/29 11:00:10;;;;;;;11.95;6.72;;;20.50;99.90;;;;;;5026158;28;20329;-61
2022/07/29 11:02:36;;;;;;;10.63;6.03;;;20.50;99.90;;;;;;5030148;28;20124;-60
2022/07/29 11:05:08;;;;;;;11.32;5.15;;;20.80;99.90;;;;;;5026436;28;20089;-60
2022/07/29 11:07:35;;;;;;;16.27;5.57;;;20.80;99.90;;;;;;5032486;28;20033;-61
2022/07/29 11:10:12;;;;;;;11.20;5.65;;;20.70;99.90;;;;;;5024939;28;20022;-61
2022/07/29 11:12:38;;;;;;;9.32;5.47;;;20.80;99.90;;;;;;5030164;28;20552;-61
2022/07/29 11:15:21;;;;;;;11.77;5.63;;;21.00;99.90;;;;;;5032174;28;20030;-61
2022/07/29 11:17:58;;;;;;;13.10;5.10;;;21.00;99.90;;;;;;5035605;28;20067;-61
2022/07/29 11:20:35;;;;;;;12.25;4.25;;;21.10;99.90;;;;;;5034502;28;20018;-61
2022/07/29 11:23:16;;;;;;;11.18;4.30;;;21.30;99.90;;;;;;5031904;28;20037;-60
2022/07/29 11:25:42;;;;;;;10.20;4.28;;;21.40;99.90;;;;;;5046098;28;20435;-61
2022/07/29 11:28:18;;;;;;;7.95;4.10;;;21.10;99.90;;;;;;5035617;28;20033;-60
2022/07/29 11:30:49;;;;;;;8.20;3.78;;;21.20;99.90;;;;;;5039194;28;20025;-61
2022/07/29 11:33:31;;;;;;;6.72;3.45;;;21.30;99.90;;;;;;5035450;28;20486;-60
2022/07/29 11:36:15;;;;;;;7.47;3.47;;;21.30;99.90;;;;;;5040421;28;20028;-61
2022/07/29 11:38:41;;;;;;;9.10;3.80;;;21.30;99.90;;;;;;5027494;28;20033;-60
2022/07/29 11:41:28;;;;;;;6.60;3.65;;;21.30;99.90;;;;;;5031250;28;20078;-61
2022/07/29 11:43:57;;;;;;;7.38;3.30;;;21.40;99.90;;;;;;5032196;28;20501;-61
2022/07/29 11:46:41;;;;;;;7.90;3.50;;;21.40;99.90;;;;;;5031273;28;20029;-60
2022/07/29 11:49:08;;;;;;;7.22;3.53;;;21.30;99.90;;;;;;5033478;28;20400;-60
2022/07/29 11:51:35;;;;;;;11.63;3.40;;;21.10;99.90;;;;;;5030232;28;20109;-61
2022/07/29 11:54:02;;;;;;;8.00;3.85;;;21.10;99.90;;;;;;5032022;28;20586;-60
2022/07/29 11:56:31;;;;;;;7.45;3.80;;;21.30;99.90;;;;;;5026863;28;20029;-61
2022/07/29 11:59:06;;;;;;;11.50;4.00;;;21.40;99.90;;;;;;5037533;28;20289;-61
2022/07/29 12:01:32;;;;;;;11.80;3.88;;;21.70;99.90;;;;;;5033925;28;20068;-61
2022/07/29 12:04:07;;;;;;;7.43;4.25;;;21.60;99.90;;;;;;5036719;28;20527;-60
2022/07/29 12:06:34;;;;;;;6.40;3.83;;;21.80;99.90;;;;;;5027478;28;20032;-61
2022/07/29 12:09:00;;;;;;;7.38;3.28;;;21.60;99.90;;;;;;5030749;28;20500;-61
2022/07/29 12:11:26;;;;;;;5.68;3.47;;;21.30;99.90;;;;;;5035714;28;20027;-61
2022/07/29 12:13:52;;;;;;;7.63;3.38;;;21.30;99.90;;;;;;5040220;28;20534;-61
2022/07/29 12:16:20;;;;;;;8.10;3.30;;;21.10;99.90;;;;;;5033237;28;20473;-61
2022/07/29 12:18:59;;;;;;;7.68;3.30;;;21.10;99.90;;;;;;5037815;28;20124;-61
2022/07/29 12:21:25;;;;;;;9.00;3.78;;;21.20;99.90;;;;;;5028854;28;20022;-61
2022/07/29 12:23:54;;;;;;;9.70;3.45;;;21.20;99.90;;;;;;5028973;28;20384;-61
2022/07/29 12:26:20;;;;;;;8.57;3.53;;;21.30;99.90;;;;;;5036028;28;20492;-61
2022/07/29 12:28:46;;;;;;;10.50;3.45;;;20.90;99.90;;;;;;5029094;28;20025;-61
2022/07/29 12:31:15;;;;;;;6.72;4.28;;;21.10;99.90;;;;;;5039534;28;20025;-61
2022/07/29 12:33:41;;;;;;;8.10;4.50;;;21.40;99.90;;;;;;5042832;28;20048;-61
2022/07/29 12:36:07;;;;;;;6.28;3.95;;;21.50;99.90;;;;;;5034864;28;20039;-61
2022/07/29 12:38:34;;;;;;;7.47;4.30;;;21.50;99.90;;;;;;5029751;28;20112;-61
2022/07/29 12:41:00;;;;;;;6.75;3.78;;;21.50;99.90;;;;;;5038428;28;20029;-61
2022/07/29 12:43:26;;;;;;;10.68;4.15;;;21.50;99.90;;;;;;5031553;28;20037;-61
2022/07/29 12:45:53;;;;;;;9.57;4.07;;;21.50;99.90;;;;;;5034962;28;20473;-60
2022/07/29 12:48:40;;;;;;;5.90;3.47;;;21.40;99.90;;;;;;5035255;28;20036;-61
2022/07/29 12:51:08;;;;;;;8.82;4.30;;;21.60;99.90;;;;;;5034620;28;20018;-60
2022/07/29 12:53:35;;;;;;;8.90;4.50;;;21.50;99.90;;;;;;5031454;28;20086;-61
2022/07/29 12:56:01;;;;;;;7.80;4.50;;;21.50;99.90;;;;;;5035539;28;20293;-61
2022/07/29 12:58:33;;;;;;;7.20;3.88;;;21.50;99.90;;;;;;5031334;28;20037;-61
2022/07/29 13:01:19;;;;;;;7.60;3.95;;;21.40;99.90;;;;;;5031910;28;20041;-61